Time;durP1;ratioP1;P1;durP2;ratioP2;P2;SDS_P1;SDS_P2;PMS_P1;PMS_P2;Temp;Humidity;BMP_temperature;BMP_pressure;BME280_temperature;BME280_humidity;BME280_pressure;Samples;Min_cycle;Max_cycle;Signal;HPM_P1;HPM_P2
2022/04/23 00:01:14;;;;;;;8.85;4.82;;;;;;;12.66;62.81;99096.06;5028067;28;20025;-31
2022/04/23 00:03:39;;;;;;;6.65;4.80;;;;;;;12.69;63.03;99095.59;5026929;28;20025;-29
2022/04/23 00:06:05;;;;;;;8.25;5.28;;;;;;;12.66;63.32;99090.72;5028176;28;20033;-31
2022/04/23 00:08:30;;;;;;;8.18;5.30;;;;;;;12.65;63.57;99097.94;5027862;28;20128;-29
2022/04/23 00:10:56;;;;;;;6.32;4.15;;;;;;;12.89;62.64;99080.72;5028161;28;20136;-34
2022/04/23 00:13:21;;;;;;;8.63;4.72;;;;;;;13.03;62.39;99093.38;5027854;28;20037;-30
2022/04/23 00:15:47;;;;;;;7.88;5.40;;;;;;;12.90;62.43;99077.00;5028612;28;20060;-29
2022/04/23 00:18:12;;;;;;;7.72;4.70;;;;;;;12.60;63.15;99083.72;5028141;28;20036;-28
2022/04/23 00:20:39;;;;;;;6.88;4.85;;;;;;;12.44;63.96;99077.44;5027688;28;20063;-29
2022/04/23 00:23:06;;;;;;;7.15;4.88;;;;;;;12.53;63.23;99061.75;5026613;28;20426;-29
2022/04/23 00:25:42;;;;;;;8.60;5.35;;;;;;;12.43;62.86;99057.94;5028136;28;20490;-29
2022/04/23 00:28:09;;;;;;;8.40;4.80;;;;;;;12.54;62.69;99071.38;5026642;28;20033;-29
2022/04/23 00:30:35;;;;;;;7.05;4.65;;;;;;;12.59;62.68;99088.28;5026449;28;20405;-28
2022/04/23 00:33:01;;;;;;;6.47;4.80;;;;;;;12.38;63.03;99059.75;5028070;28;20055;-28
2022/04/23 00:35:27;;;;;;;8.70;4.80;;;;;;;12.64;62.83;99104.34;5026068;28;20470;-31
2022/04/23 00:37:52;;;;;;;10.20;5.00;;;;;;;12.49;63.82;99098.91;5027697;28;20550;-31
2022/04/23 00:40:21;;;;;;;12.52;5.95;;;;;;;12.08;63.34;99116.44;5025909;28;20034;-32
2022/04/23 00:42:50;;;;;;;7.10;5.22;;;;;;;11.63;63.90;99120.97;5027559;28;20053;-30
2022/04/23 00:45:16;;;;;;;8.68;4.93;;;;;;;10.95;66.30;99106.97;5027962;28;20080;-29
2022/04/23 00:47:41;;;;;;;7.13;4.65;;;;;;;10.15;70.25;99114.19;5027433;28;20466;-29
2022/04/23 00:50:07;;;;;;;8.23;4.40;;;;;;;9.94;71.26;99108.50;5027553;28;20032;-28
2022/04/23 00:52:33;;;;;;;8.88;4.97;;;;;;;9.84;72.11;99111.78;5025985;28;20580;-28
2022/04/23 00:55:00;;;;;;;8.52;5.18;;;;;;;10.05;71.22;99098.84;5027383;28;20040;-29
2022/04/23 00:57:26;;;;;;;7.77;5.33;;;;;;;10.48;69.81;99096.66;5026383;28;20575;-28
2022/04/23 00:59:52;;;;;;;10.23;5.25;;;;;;;10.21;70.74;99079.41;5027538;28;20026;-29
2022/04/23 01:02:18;;;;;;;7.88;5.35;;;;;;;10.05;71.38;99099.66;5027334;28;20037;-32
2022/04/23 01:04:44;;;;;;;9.88;5.85;;;;;;;10.27;70.60;99096.28;5027578;28;20099;-31
2022/04/23 01:07:12;;;;;;;11.13;6.35;;;;;;;10.51;69.45;99085.53;5027204;28;20040;-29
2022/04/23 01:09:39;;;;;;;10.98;5.65;;;;;;;10.57;69.31;99084.56;5027107;28;20088;-29
2022/04/23 01:12:05;;;;;;;9.10;5.70;;;;;;;10.60;69.37;99116.06;5027342;28;20045;-29
2022/04/23 01:14:31;;;;;;;8.05;5.28;;;;;;;9.75;73.40;99109.75;5029553;28;20040;-29
2022/04/23 01:16:56;;;;;;;9.88;5.72;;;;;;;9.41;74.04;99083.78;5030940;28;20108;-29
2022/04/23 01:19:22;;;;;;;9.45;5.65;;;;;;;9.40;74.02;99100.00;5031242;28;20030;-28
2022/04/23 01:21:48;;;;;;;9.50;6.43;;;;;;;9.57;73.45;99082.25;5031106;28;20065;-29
2022/04/23 01:24:15;;;;;;;10.38;5.68;;;;;;;10.09;71.62;99101.84;5030694;28;20039;-31
2022/04/23 01:26:41;;;;;;;13.23;6.82;;;;;;;10.17;70.60;99112.91;5030888;28;20083;-31
2022/04/23 01:29:06;;;;;;;10.48;6.05;;;;;;;10.00;71.39;99110.22;5030777;28;20037;-30
2022/04/23 01:31:32;;;;;;;9.73;5.75;;;;;;;9.91;72.21;99100.16;5030794;28;20030;-30
2022/04/23 01:33:59;;;;;;;8.70;5.85;;;;;;;10.08;71.53;99105.56;5030704;28;20124;-30
2022/04/23 01:36:24;;;;;;;10.90;6.40;;;;;;;10.14;70.82;99096.63;5028848;28;20179;-29
2022/04/23 01:38:50;;;;;;;12.07;6.47;;;;;;;9.69;72.87;99090.19;5029145;28;20116;-29
2022/04/23 01:41:16;;;;;;;9.80;6.55;;;;;;;9.74;72.97;99108.91;5030393;28;20052;-31
2022/04/23 01:43:42;;;;;;;8.48;6.10;;;;;;;9.94;72.07;99108.50;5030577;28;20029;-29
2022/04/23 01:46:08;;;;;;;9.43;5.82;;;;;;;9.55;73.64;99110.16;5029060;28;20029;-34
2022/04/23 01:48:33;;;;;;;10.48;6.53;;;;;;;9.61;73.43;99106.53;5028968;28;20032;-29
2022/04/23 01:50:59;;;;;;;11.90;6.35;;;;;;;9.71;72.29;99097.94;5030444;28;20500;-31
2022/04/23 01:53:25;;;;;;;11.23;6.78;;;;;;;9.73;72.35;99099.31;5030255;28;20564;-28
2022/04/23 01:55:54;;;;;;;9.80;6.10;;;;;;;9.39;74.52;99101.03;5029341;28;20091;-29
2022/04/23 01:58:24;;;;;;;13.63;6.85;;;;;;;9.18;75.66;99094.47;5028796;28;20103;-30
2022/04/23 02:00:50;;;;;;;7.78;6.00;;;;;;;9.35;75.58;99110.53;5028865;28;20034;-30
2022/04/23 02:03:16;;;;;;;10.27;6.25;;;;;;;9.31;75.30;99090.75;5030232;28;20045;-30
2022/04/23 02:05:41;;;;;;;11.15;7.28;;;;;;;9.40;74.14;99098.16;5030104;28;20391;-29
2022/04/23 02:08:09;;;;;;;11.85;6.85;;;;;;;9.54;72.99;99127.97;5030466;28;20036;-30
2022/04/23 02:10:34;;;;;;;20.98;12.30;;;;;;;9.48;72.14;99110.28;5028449;28;20033;-32
2022/04/23 02:13:00;;;;;;;33.63;17.98;;;;;;;9.04;73.05;99117.84;5030231;28;20068;-29
2022/04/23 02:15:25;;;;;;;23.92;13.00;;;;;;;9.16;73.09;99129.28;5029920;28;20030;-29
2022/04/23 02:17:52;;;;;;;12.38;7.82;;;;;;;8.97;73.54;99133.94;5029681;28;20041;-31
2022/04/23 02:20:18;;;;;;;9.63;6.05;;;;;;;8.71;73.28;99126.41;5028123;28;20029;-29
2022/04/23 02:22:44;;;;;;;10.82;6.40;;;;;;;8.80;74.35;99144.41;5030105;28;20036;-30
2022/04/23 02:25:11;;;;;;;9.38;6.18;;;;;;;8.59;74.37;99126.38;5011855;28;20029;-29
2022/04/23 02:27:49;;;;;;;12.80;6.88;;;;;;;8.36;76.08;99149.16;5028230;28;20040;-28
2022/04/23 02:30:20;;;;;;;8.98;6.85;;;;;;;8.61;76.09;99140.25;5028114;28;20413;-29
2022/04/23 02:32:47;;;;;;;9.88;6.53;;;;;;;8.42;76.37;99119.06;5029718;28;20041;-32
2022/04/23 02:35:15;;;;;;;9.02;6.80;;;;;;;8.43;77.38;99131.28;5027798;28;20413;-34
2022/04/23 02:37:44;;;;;;;9.85;7.15;;;;;;;8.67;77.01;99167.75;5028349;28;20025;-31
2022/04/23 02:40:10;;;;;;;9.70;5.97;;;;;;;8.85;75.93;99155.19;5028180;28;20037;-31
2022/04/23 02:42:39;;;;;;;8.68;6.45;;;;;;;8.76;76.74;99143.25;5029312;28;20028;-31
2022/04/23 02:45:06;;;;;;;10.32;7.20;;;;;;;8.62;77.01;99155.13;5029321;28;20033;-29
2022/04/23 02:47:49;;;;;;;11.20;7.35;;;;;;;8.63;75.56;99140.81;5027696;28;20087;-31
2022/04/23 02:50:22;;;;;;;12.82;8.07;;;;;;;8.32;76.74;99158.63;5029663;28;20041;-31
2022/04/23 02:52:47;;;;;;;61.05;23.13;;;;;;;8.73;74.96;99146.38;5029542;28;20533;-28
2022/04/23 02:55:13;;;;;;;52.83;19.33;;;;;;;8.88;75.17;99169.06;5029634;28;20104;-35
2022/04/23 02:57:41;;;;;;;94.97;39.67;;;;;;;8.69;74.98;99174.47;5029234;28;20025;-28
2022/04/23 03:00:08;;;;;;;26.50;14.40;;;;;;;8.60;74.61;99151.91;5029073;28;20048;-30
2022/04/23 03:02:36;;;;;;;22.52;12.25;;;;;;;8.56;75.01;99151.56;5027628;28;20030;-29
2022/04/23 03:05:11;;;;;;;11.68;8.70;;;;;;;8.70;74.92;99193.88;5027687;28;20044;-31
2022/04/23 03:07:37;;;;;;;11.73;8.20;;;;;;;8.54;75.74;99196.16;5029206;28;20030;-30
2022/04/23 03:10:07;;;;;;;10.13;8.00;;;;;;;8.20;75.99;99173.72;5027474;28;20728;-28
2022/04/23 03:12:35;;;;;;;14.43;8.55;;;;;;;8.28;77.28;99186.69;5027381;28;20034;-28
2022/04/23 03:15:01;;;;;;;11.23;7.88;;;;;;;8.51;76.48;99195.78;5028829;28;20038;-39
2022/04/23 03:17:26;;;;;;;11.90;7.53;;;;;;;8.16;76.44;99212.38;5027450;28;20095;-29
2022/04/23 03:19:53;;;;;;;14.52;10.77;;;;;;;8.12;76.40;99216.50;5029044;28;20029;-30
2022/04/23 03:22:21;;;;;;;11.60;8.48;;;;;;;8.08;76.79;99192.25;5028411;28;20457;-29
2022/04/23 03:24:47;;;;;;;14.13;9.20;;;;;;;7.71;79.06;99202.09;5028650;28;20068;-30
2022/04/23 03:27:12;;;;;;;11.07;7.63;;;;;;;7.84;77.99;99196.63;5026902;28;20037;-28
2022/04/23 03:29:39;;;;;;;11.85;8.05;;;;;;;7.99;76.77;99205.03;5029070;28;20433;-30
2022/04/23 03:32:05;;;;;;;15.00;9.30;;;;;;;8.00;78.32;99211.94;5027098;28;20116;-29
2022/04/23 03:34:30;;;;;;;11.23;8.70;;;;;;;8.08;77.90;99212.69;5028198;28;20127;-29
2022/04/23 03:36:55;;;;;;;13.35;10.38;;;;;;;8.29;76.95;99228.13;5027490;28;20083;-33
2022/04/23 03:39:21;;;;;;;14.93;10.43;;;;;;;8.02;77.52;99228.47;5028125;28;20432;-31
2022/04/23 03:41:46;;;;;;;13.43;9.05;;;;;;;8.16;77.62;99199.09;5028062;28;20033;-29
2022/04/23 03:44:12;;;;;;;11.75;7.63;;;;;;;7.48;75.67;99230.06;5028720;28;20029;-29
2022/04/23 03:46:37;;;;;;;11.80;8.57;;;;;;;7.09;77.18;99207.38;5028190;28;20029;-29
2022/04/23 03:49:03;;;;;;;12.10;8.10;;;;;;;7.31;76.67;99219.19;5028225;28;20031;-30
2022/04/23 03:51:28;;;;;;;30.98;11.75;;;;;;;7.41;77.21;99213.41;5028145;28;20116;-29
2022/04/23 03:53:54;;;;;;;19.85;11.88;;;;;;;7.64;77.07;99224.19;5028232;28;20017;-32
2022/04/23 03:56:19;;;;;;;23.00;14.82;;;;;;;7.56;77.96;99227.16;5027771;28;20108;-28
2022/04/23 03:58:45;;;;;;;17.77;14.23;;;;;;;7.80;77.19;99227.28;5028373;28;20076;-28
2022/04/23 04:01:10;;;;;;;14.95;10.82;;;;;;;7.90;76.04;99222.28;5028143;28;20025;-30
2022/04/23 04:03:36;;;;;;;14.73;9.02;;;;;;;8.05;76.53;99228.03;5028223;28;20022;-28
2022/04/23 04:06:01;;;;;;;18.50;12.68;;;;;;;8.22;77.71;99256.63;5027853;28;20034;-29
2022/04/23 04:08:27;;;;;;;17.55;12.77;;;;;;;8.12;77.99;99262.47;5026432;28;20029;-31
2022/04/23 04:10:52;;;;;;;15.32;10.77;;;;;;;7.73;77.53;99234.53;5027535;28;20029;-31
2022/04/23 04:13:18;;;;;;;14.20;9.98;;;;;;;7.84;78.01;99247.84;5028179;28;20036;-29
2022/04/23 04:15:46;;;;;;;12.88;8.55;;;;;;;7.86;78.38;99237.03;5027713;28;20029;-34
2022/04/23 04:18:12;;;;;;;14.20;8.55;;;;;;;8.23;78.57;99234.34;5010191;28;20029;-28
2022/04/23 04:20:40;;;;;;;13.00;8.15;;;;;;;8.15;79.47;99224.03;5026228;28;20044;-33
2022/04/23 04:23:08;;;;;;;12.13;8.15;;;;;;;8.33;79.14;99221.34;5026029;28;20034;-30
2022/04/23 04:25:35;;;;;;;14.35;9.25;;;;;;;9.00;76.58;99236.34;5027548;28;20049;-31
2022/04/23 04:28:01;;;;;;;14.13;8.88;;;;;;;8.92;78.00;99240.16;5027724;28;20061;-29
2022/04/23 04:30:27;;;;;;;16.05;9.13;;;;;;;9.19;77.58;99237.91;5026199;28;20056;-29
2022/04/23 04:32:52;;;;;;;19.95;9.73;;;;;;;9.45;75.56;99218.00;5026274;28;20139;-31
2022/04/23 04:35:18;;;;;;;14.52;8.15;;;;;;;9.73;74.19;99218.34;5027495;28;20069;-30
2022/04/23 04:37:44;;;;;;;12.95;8.70;;;;;;;9.97;74.10;99243.88;5027328;28;20045;-29
2022/04/23 04:40:11;;;;;;;14.27;9.52;;;;;;;10.20;74.11;99255.53;5027951;28;20120;-29
2022/04/23 04:42:37;;;;;;;13.32;9.20;;;;;;;10.23;75.03;99255.03;5026032;28;20378;-28
2022/04/23 04:45:03;;;;;;;13.32;8.75;;;;;;;10.39;73.76;99253.50;5026353;28;20036;-29
2022/04/23 04:47:29;;;;;;;15.65;9.90;;;;;;;10.66;72.71;99243.06;5026122;28;20039;-29
2022/04/23 04:49:55;;;;;;;19.42;13.35;;;;;;;10.55;74.45;99247.41;5031316;28;20032;-30
2022/04/23 04:52:20;;;;;;;14.75;10.98;;;;;;;10.83;72.99;99241.25;5029793;28;20128;-29
2022/04/23 04:54:46;;;;;;;14.93;10.57;;;;;;;11.06;72.68;99242.16;5031270;28;20534;-28
2022/04/23 04:57:11;;;;;;;24.00;10.90;;;;;;;10.93;72.69;99227.28;5031536;28;20545;-29
2022/04/23 04:59:37;;;;;;;15.20;10.10;;;;;;;11.10;73.06;99255.84;5031399;28;20030;-32
2022/04/23 05:02:03;;;;;;;15.43;9.57;;;;;;;11.36;71.75;99251.69;5029990;28;20030;-29
2022/04/23 05:04:29;;;;;;;17.85;9.98;;;;;;;11.39;72.93;99241.34;5029672;28;20099;-32
2022/04/23 05:06:55;;;;;;;16.48;10.30;;;;;;;11.29;74.08;99249.19;5029844;28;20033;-32
2022/04/23 05:09:21;;;;;;;16.42;10.43;;;;;;;11.24;73.30;99228.56;5030953;28;20040;-32
2022/04/23 05:11:46;;;;;;;15.20;11.00;;;;;;;11.32;72.67;99234.53;5029899;28;20025;-29
2022/04/23 05:14:12;;;;;;;16.48;10.60;;;;;;;11.41;73.07;99233.91;5031268;28;20030;-28
2022/04/23 05:16:38;;;;;;;15.95;10.93;;;;;;;11.63;72.77;99236.63;5030829;28;20025;-28
2022/04/23 05:19:03;;;;;;;15.57;12.63;;;;;;;11.94;71.43;99249.63;5031176;28;20124;-30
2022/04/23 05:21:29;;;;;;;18.08;13.88;;;;;;;12.04;70.89;99255.88;5030813;28;20026;-34
2022/04/23 05:23:54;;;;;;;17.13;13.30;;;;;;;11.97;71.68;99241.09;5029507;28;20037;-31
2022/04/23 05:26:20;;;;;;;15.75;11.23;;;;;;;12.19;70.57;99235.75;5030929;28;20088;-32
2022/04/23 05:28:45;;;;;;;17.60;11.77;;;;;;;12.33;69.23;99239.66;5031217;28;20033;-30
2022/04/23 05:31:11;;;;;;;19.75;12.68;;;;;;;12.64;67.77;99234.63;5030916;28;20026;-29
2022/04/23 05:33:36;;;;;;;18.85;13.45;;;;;;;13.00;66.33;99251.81;5030631;28;20032;-29
2022/04/23 05:36:06;;;;;;;19.88;13.50;;;;;;;13.14;66.54;99248.72;5030790;28;20136;-32
2022/04/23 05:38:36;;;;;;;22.67;14.75;;;;;;;13.54;64.67;99242.84;5030120;28;20037;-32
2022/04/23 05:41:03;;;;;;;19.17;14.35;;;;;;;13.50;65.68;99236.41;5030892;28;20044;-29
2022/04/23 05:43:28;;;;;;;22.95;15.27;;;;;;;13.80;64.77;99218.91;5029169;28;20053;-29
2022/04/23 05:45:57;;;;;;;19.35;13.57;;;;;;;13.74;65.05;99233.34;5030668;28;20063;-29
2022/04/23 05:48:22;;;;;;;26.98;15.73;;;;;;;13.89;66.20;99238.75;5030365;28;20452;-29
2022/04/23 05:50:48;;;;;;;19.85;14.25;;;;;;;13.86;66.12;99239.31;5029065;28;20037;-29
2022/04/23 05:53:13;;;;;;;19.48;13.90;;;;;;;14.14;64.83;99240.78;5028703;28;20482;-30
2022/04/23 05:55:39;;;;;;;19.10;13.95;;;;;;;14.39;64.97;99250.78;5030532;28;20555;-29
2022/04/23 05:58:05;;;;;;;20.95;13.18;;;;;;;14.44;63.90;99245.44;5030415;28;20400;-36
2022/04/23 06:00:30;;;;;;;21.20;14.15;;;;;;;14.39;65.01;99261.50;5029255;28;20033;-29
2022/04/23 06:02:55;;;;;;;17.80;13.63;;;;;;;14.82;65.03;99267.53;5028631;28;20450;-34
2022/04/23 06:05:21;;;;;;;15.82;12.23;;;;;;;14.74;63.83;99248.47;5029712;28;20116;-31
2022/04/23 06:07:47;;;;;;;18.27;12.45;;;;;;;14.82;64.41;99262.16;5030237;28;20029;-29
2022/04/23 06:10:13;;;;;;;16.73;12.70;;;;;;;14.93;65.16;99264.84;5030270;28;20112;-29
2022/04/23 06:12:38;;;;;;;19.85;12.45;;;;;;;15.03;64.26;99252.25;5028374;28;20413;-30
2022/04/23 06:15:04;;;;;;;18.98;12.93;;;;;;;14.85;66.14;99261.66;5029965;28;20025;-29
2022/04/23 06:17:30;;;;;;;17.55;12.00;;;;;;;14.87;64.78;99269.41;5028216;28;20044;-32
2022/04/23 06:19:56;;;;;;;18.15;11.93;;;;;;;14.39;65.78;99258.81;5028325;28;20021;-29
2022/04/23 06:22:22;;;;;;;18.73;13.57;;;;;;;14.61;65.42;99260.53;5028056;28;20029;-30
2022/04/23 06:24:48;;;;;;;16.02;12.10;;;;;;;14.73;65.33;99261.09;5028506;28;20038;-31
2022/04/23 06:27:14;;;;;;;16.48;12.88;;;;;;;14.92;64.38;99266.75;5028074;28;20088;-29
2022/04/23 06:29:40;;;;;;;16.35;12.25;;;;;;;15.07;64.00;99263.25;5029733;28;20029;-29
2022/04/23 06:32:06;;;;;;;17.48;12.20;;;;;;;15.27;62.54;99263.25;5028129;28;20123;-31
2022/04/23 06:34:34;;;;;;;17.65;11.68;;;;;;;15.54;63.30;99272.09;5027842;28;20025;-35
2022/04/23 06:36:59;;;;;;;18.45;10.77;;;;;;;15.83;61.92;99275.84;5029755;28;20054;-30
2022/04/23 06:39:24;;;;;;;16.10;10.93;;;;;;;15.82;61.62;99262.69;5029703;28;20045;-35
2022/04/23 06:41:50;;;;;;;15.15;10.00;;;;;;;16.18;60.73;99270.63;5028003;28;20033;-29
2022/04/23 06:44:15;;;;;;;14.30;10.00;;;;;;;15.92;60.53;99264.53;5029340;28;20445;-29
2022/04/23 06:46:41;;;;;;;14.25;10.27;;;;;;;15.57;61.75;99247.38;5029165;28;20542;-34
2022/04/23 06:49:06;;;;;;;13.13;10.25;;;;;;;15.65;62.60;99253.00;5028919;28;20030;-29
2022/04/23 06:51:32;;;;;;;16.00;12.00;;;;;;;15.51;64.09;99251.97;5029354;28;20063;-33
2022/04/23 06:53:58;;;;;;;14.93;10.50;;;;;;;15.68;65.23;99252.44;5027756;28;20497;-32
2022/04/23 06:56:24;;;;;;;14.82;10.45;;;;;;;15.62;63.02;99264.28;5028878;28;20033;-29
2022/04/23 06:58:49;;;;;;;15.32;10.88;;;;;;;15.86;62.79;99274.50;5027876;28;20589;-32
2022/04/23 07:01:18;;;;;;;14.68;10.52;;;;;;;16.11;62.58;99265.53;5028933;28;20497;-32
2022/04/23 07:03:43;;;;;;;13.07;10.00;;;;;;;16.03;60.61;99279.56;5027418;28;20033;-29
2022/04/23 07:06:09;;;;;;;15.15;10.07;;;;;;;16.26;61.45;99272.72;5029022;28;20031;-34
2022/04/23 07:08:34;;;;;;;14.80;10.30;;;;;;;16.14;61.81;99274.94;5028942;28;20083;-29
2022/04/23 07:10:59;;;;;;;14.27;10.07;;;;;;;16.09;63.90;99278.44;5027828;28;20061;-29
2022/04/23 07:13:25;;;;;;;16.35;9.73;;;;;;;16.11;62.62;99280.88;5028775;28;20109;-29
2022/04/23 07:15:50;;;;;;;14.10;9.93;;;;;;;16.53;60.60;99279.59;5028624;28;20104;-29
2022/04/23 07:18:16;;;;;;;13.77;10.35;;;;;;;16.42;61.05;99290.41;5027017;28;20049;-30
2022/04/23 07:20:42;;;;;;;16.02;10.20;;;;;;;16.22;61.74;99298.56;5028323;28;20481;-32
2022/04/23 07:25:52;;;;;;;14.95;9.80;;;;;;;16.63;60.99;99299.22;5028501;28;20033;-29
2022/04/23 07:28:20;;;;;;;12.93;9.38;;;;;;;16.31;61.71;99280.78;5026804;28;20035;-39
2022/04/23 07:30:45;;;;;;;;;;;;;;;16.77;60.18;99309.34;5027429;28;20091;-29
2022/04/23 07:37:28;;;;;;;12.77;10.68;;;;;;;16.60;60.96;99293.56;5028578;28;20339;-29
2022/04/23 07:38:43;;;;;;;13.57;10.63;;;;;;;16.76;60.64;99308.56;5028331;28;20115;-29
2022/04/23 07:41:09;;;;;;;11.80;9.77;;;;;;;17.04;58.92;99295.47;5028307;28;20033;-35
2022/04/23 07:43:34;;;;;;;13.77;10.10;;;;;;;17.09;57.88;99302.72;5028469;28;20448;-31
2022/04/23 07:46:00;;;;;;;16.60;9.95;;;;;;;17.08;57.84;99304.63;5028368;28;20116;-29
2022/04/23 07:48:25;;;;;;;14.20;9.32;;;;;;;17.07;58.41;99311.88;5028173;28;20412;-29
2022/04/23 07:50:51;;;;;;;11.80;8.75;;;;;;;17.42;58.20;99301.91;5028106;28;20596;-30
2022/04/23 07:53:16;;;;;;;16.17;9.35;;;;;;;17.27;58.51;99308.25;5028097;28;20036;-32
2022/04/23 07:55:42;;;;;;;9.63;7.55;;;;;;;17.84;57.41;99294.28;5028193;28;20029;-30
2022/04/23 07:58:09;;;;;;;11.77;7.88;;;;;;;17.97;56.35;99295.50;5028154;28;20040;-29
2022/04/23 08:00:35;;;;;;;11.77;7.38;;;;;;;17.99;54.99;99291.41;5027953;28;20026;-29
2022/04/23 08:03:05;;;;;;;12.60;7.82;;;;;;;18.24;55.08;99303.81;5027678;28;20033;-32
2022/04/23 08:05:32;;;;;;;11.95;7.35;;;;;;;18.25;55.74;99299.22;5027914;28;20033;-30
2022/04/23 08:07:58;;;;;;;10.30;7.35;;;;;;;18.66;54.14;99294.09;5028004;28;20060;-30
2022/04/23 08:10:23;;;;;;;10.95;6.95;;;;;;;18.80;53.35;99288.81;5025915;28;20083;-32
2022/04/23 08:12:49;;;;;;;15.35;8.75;;;;;;;18.81;54.95;99295.00;5028003;28;20569;-31
2022/04/23 08:15:15;;;;;;;10.27;7.18;;;;;;;18.95;52.07;99292.38;5027793;28;20095;-30
2022/04/23 08:17:41;;;;;;;9.55;7.13;;;;;;;18.67;54.29;99297.59;5027745;28;20026;-29
2022/04/23 08:20:07;;;;;;;9.65;7.10;;;;;;;19.20;54.93;99305.47;5026132;28;20383;-29
2022/04/23 08:22:33;;;;;;;8.98;6.95;;;;;;;19.56;52.48;99306.81;5025739;28;20036;-32
2022/04/23 08:24:59;;;;;;;9.07;6.85;;;;;;;19.01;52.97;99292.00;5027403;28;20033;-33
2022/04/23 08:27:24;;;;;;;13.10;6.93;;;;;;;19.38;52.85;99309.25;5026241;28;20044;-30
2022/04/23 08:32:35;;;;;;;10.13;7.72;;;;;;;19.48;53.90;99309.09;5027434;28;20044;-31
2022/04/23 08:35:01;;;;;;;11.80;7.72;;;;;;;19.55;51.11;99308.69;5025811;28;20029;-32
2022/04/23 08:37:27;;;;;;;10.32;7.15;;;;;;;19.48;51.45;99305.59;5025750;28;20037;-29
2022/04/23 08:47:23;;;;;;;10.70;7.85;;;;;;;19.96;49.32;99316.13;5027229;28;20052;-30
2022/04/23 08:49:54;;;;;;;9.68;6.45;;;;;;;19.96;50.14;99286.38;5025731;28;20033;-33
2022/04/23 08:52:32;;;;;;;9.68;7.30;;;;;;;20.53;48.78;99298.75;5026692;28;20029;-30
2022/04/23 08:54:59;;;;;;;11.20;7.90;;;;;;;20.46;47.07;99299.16;5027230;28;20041;-31
2022/04/23 08:57:25;;;;;;;11.10;7.78;;;;;;;20.56;48.41;99287.31;5025562;28;20033;-32
2022/04/23 08:59:56;;;;;;;11.07;6.78;;;;;;;20.74;45.56;99304.53;5027127;28;20131;-29
2022/04/23 09:02:26;;;;;;;8.85;6.30;;;;;;;21.05;46.47;99302.75;5025177;28;20087;-31
2022/04/23 09:04:54;;;;;;;8.20;5.50;;;;;;;20.87;44.93;99293.69;5025735;28;20136;-29
2022/04/23 09:07:29;;;;;;;;;;;;;;;20.86;45.04;99297.50;5026208;28;20119;-30
2022/04/23 09:09:58;;;;;;;10.10;5.10;;;;;;;20.83;46.31;99289.97;5058965;28;19919;-31
2022/04/23 09:12:26;;;;;;;8.75;5.28;;;;;;;20.97;46.20;99292.66;5025278;28;20036;-29
2022/04/23 09:23:39;;;;;;;7.97;5.60;;;;;;;21.43;43.54;99277.19;5027231;28;20068;-31
2022/04/23 09:26:19;;;;;;;10.00;5.65;;;;;;;21.36;45.14;99277.59;5027197;28;20140;-31
2022/04/23 09:28:49;;;;;;;10.93;5.22;;;;;;;21.14;45.42;99274.91;5025433;28;20490;-29
2022/04/23 09:31:16;;;;;;;8.88;5.45;;;;;;;21.11;45.13;99270.13;5025449;28;20031;-33
2022/04/23 09:33:49;;;;;;;9.90;6.22;;;;;;;20.82;45.39;99285.69;5025199;28;20041;-30
2022/04/23 09:36:15;;;;;;;11.77;4.95;;;;;;;20.76;44.59;99276.06;5030243;28;20587;-31
2022/04/23 09:38:40;;;;;;;9.50;4.40;;;;;;;21.02;42.71;99283.59;5028691;28;20029;-32
2022/04/23 09:41:21;;;;;;;6.80;3.80;;;;;;;21.22;45.05;99277.66;5028919;28;20086;-29
2022/04/23 09:43:51;;;;;;;10.50;4.82;;;;;;;20.98;43.50;99283.41;5030468;28;20036;-30
2022/04/23 09:46:17;;;;;;;7.15;4.70;;;;;;;20.99;43.93;99266.03;5029940;28;20537;-33
2022/04/23 09:48:43;;;;;;;9.40;5.28;;;;;;;21.14;46.01;99281.13;5030335;28;20021;-32
2022/04/23 09:51:29;;;;;;;6.65;5.03;;;;;;;21.22;48.92;99277.66;5028683;28;20033;-36
2022/04/23 09:53:55;;;;;;;10.07;5.55;;;;;;;21.45;44.97;99264.13;5029802;28;20041;-30
2022/04/23 09:56:25;;;;;;;9.88;5.03;;;;;;;21.80;42.96;99259.69;5028501;28;20095;-35
2022/04/23 09:58:52;;;;;;;10.35;5.78;;;;;;;21.69;44.28;99280.03;5029959;28;20026;-31
2022/04/23 10:01:22;;;;;;;8.98;5.60;;;;;;;21.85;45.53;99267.66;5029912;28;20036;-29
2022/04/23 10:03:52;;;;;;;8.70;5.50;;;;;;;22.24;43.12;99254.41;5030244;28;20033;-33
2022/04/23 10:06:20;;;;;;;9.68;5.85;;;;;;;22.58;44.47;99250.94;5029786;28;20029;-30
2022/04/23 10:08:51;;;;;;;10.13;5.43;;;;;;;22.45;41.94;99252.69;5029926;28;20042;-33
2022/04/23 10:11:27;;;;;;;9.25;5.70;;;;;;;22.94;42.18;99263.41;5028273;28;20029;-29
2022/04/23 10:14:04;;;;;;;8.63;4.95;;;;;;;23.20;41.33;99260.69;5028533;28;20124;-33
2022/04/23 10:16:31;;;;;;;9.68;4.78;;;;;;;23.38;42.73;99250.56;5028212;28;20030;-30
2022/04/23 10:18:57;;;;;;;8.60;4.28;;;;;;;23.81;40.98;99260.53;5028502;28;20037;-31
2022/04/23 10:21:41;;;;;;;7.40;3.90;;;;;;;23.42;37.95;99256.19;5029532;28;20119;-30
2022/04/23 10:24:19;;;;;;;8.23;3.67;;;;;;;23.73;39.67;99255.13;5028343;28;20172;-31
2022/04/23 10:26:50;;;;;;;9.55;3.47;;;;;;;23.80;38.07;99236.34;5029615;28;20026;-36
2022/04/23 10:29:21;;;;;;;8.55;3.03;;;;;;;24.50;38.51;99252.31;5028005;28;20623;-31
2022/04/23 10:32:15;;;;;;;7.30;3.20;;;;;;;24.19;38.77;99261.63;5028028;28;20136;-30
2022/04/23 10:34:43;;;;;;;8.25;3.70;;;;;;;24.30;36.97;99251.97;5028949;28;20033;-29
2022/04/23 10:37:20;;;;;;;7.20;3.20;;;;;;;24.38;36.86;99247.59;5029004;28;20131;-30
2022/04/23 10:40:06;;;;;;;6.20;3.25;;;;;;;24.11;34.96;99254.31;5029173;28;20263;-29
2022/04/23 10:42:32;;;;;;;6.72;3.53;;;;;;;23.79;37.13;99249.19;5028688;28;20029;-31
2022/04/23 10:45:03;;;;;;;9.95;3.20;;;;;;;23.92;37.91;99228.28;5029190;28;20037;-30
2022/04/23 10:47:36;;;;;;;8.02;2.80;;;;;;;24.32;37.55;99240.75;5028098;28;20056;-30
2022/04/23 10:50:31;;;;;;;7.25;3.20;;;;;;;24.35;36.06;99243.56;5027627;28;20033;-30
2022/04/23 10:53:03;;;;;;;7.90;3.13;;;;;;;23.98;36.64;99237.06;5027981;28;20041;-29
2022/04/23 10:55:29;;;;;;;8.43;3.20;;;;;;;24.15;36.10;99239.72;5027609;28;20065;-32
2022/04/23 10:58:15;;;;;;;8.70;2.83;;;;;;;24.35;35.45;99227.22;5027494;28;20064;-30
2022/04/23 11:00:45;;;;;;;6.68;3.22;;;;;;;24.11;36.59;99216.16;5028666;28;20037;-29
2022/04/23 11:03:11;;;;;;;6.50;3.08;;;;;;;24.44;36.48;99232.63;5028589;28;20053;-29
2022/04/23 11:14:07;;;;;;;10.60;3.08;;;;;;;25.23;32.23;99235.50;5028492;28;20032;-32
2022/04/23 11:16:34;;;;;;;8.45;3.92;;;;;;;25.31;32.46;99236.56;5026967;28;20470;-34
2022/04/23 11:19:01;;;;;;;8.10;3.00;;;;;;;26.00;32.42;99233.00;5028602;28;20024;-30
2022/04/23 11:21:29;;;;;;;12.57;3.50;;;;;;;26.03;32.39;99221.41;5028741;28;20034;-30
2022/04/23 11:24:00;;;;;;;9.93;3.55;;;;;;;26.43;32.31;99223.38;5026822;28;20037;-31
2022/04/23 11:26:44;;;;;;;11.98;3.50;;;;;;;26.14;32.40;99215.47;5027998;28;20060;-30
2022/04/23 11:29:10;;;;;;;9.05;3.50;;;;;;;26.19;32.27;99228.91;5028882;28;20108;-31
2022/04/23 11:31:36;;;;;;;7.80;3.05;;;;;;;26.35;30.43;99212.59;5028610;28;20063;-29
2022/04/23 11:34:03;;;;;;;11.13;3.03;;;;;;;26.93;32.03;99213.09;5028204;28;20034;-31
2022/04/23 11:36:34;;;;;;;8.80;3.58;;;;;;;26.74;30.76;99221.94;5027713;28;20152;-32
2022/04/23 11:39:03;;;;;;;9.02;3.58;;;;;;;26.86;27.99;99216.41;5026757;28;20037;-31
2022/04/23 11:41:44;;;;;;;13.18;3.67;;;;;;;26.93;28.54;99223.22;5010420;28;20049;-31
2022/04/23 11:44:20;;;;;;;10.20;3.10;;;;;;;26.71;29.17;99239.06;5028272;28;20057;-34
2022/04/23 11:46:51;;;;;;;9.38;3.03;;;;;;;27.36;29.33;99229.88;5026806;28;20441;-33
2022/04/23 11:49:31;;;;;;;6.32;2.40;;;;;;;27.60;28.70;99228.91;5028216;28;20728;-30
2022/04/23 11:52:12;;;;;;;8.73;3.05;;;;;;;26.89;27.78;99222.34;5026456;28;20038;-33
2022/04/23 11:54:42;;;;;;;14.93;2.88;;;;;;;27.38;28.30;99225.66;5028039;28;20029;-32
2022/04/23 11:57:16;;;;;;;8.95;2.90;;;;;;;27.80;26.88;99227.06;5026069;28;20417;-31
2022/04/23 11:59:46;;;;;;;9.93;3.10;;;;;;;27.88;25.90;99234.31;5027866;28;20087;-31
2022/04/23 12:02:25;;;;;;;9.43;2.58;;;;;;;28.50;27.45;99223.59;5027909;28;20508;-30
2022/04/23 12:04:53;;;;;;;12.40;3.05;;;;;;;28.44;25.52;99212.09;5027923;28;20030;-30